sensor_id;sensor_type;location;lat;lon;timestamp;pressure;altitude;pressure_sealevel;temperature;humidity
69855;BME280;57146;48.140;16.304;2023-03-03T00:01:57;99559.25;;;0.21;74.64
69855;BME280;57146;48.140;16.304;2023-03-03T00:04:24;99559.13;;;0.16;75.91
69855;BME280;57146;48.140;16.304;2023-03-03T00:06:52;99559.47;;;0.08;76.32
69855;BME280;57146;48.140;16.304;2023-03-03T00:09:21;99561.38;;;0.01;75.90
69855;BME280;57146;48.140;16.304;2023-03-03T00:11:53;99567.69;;;0.05;75.74
69855;BME280;57146;48.140;16.304;2023-03-03T00:14:32;99560.59;;;0.01;76.18
69855;BME280;57146;48.140;16.304;2023-03-03T00:17:13;99561.81;;;-0.02;75.78
69855;BME280;57146;48.140;16.304;2023-03-03T00:19:44;99552.69;;;-0.05;76.50
69855;BME280;57146;48.140;16.304;2023-03-03T00:22:36;99555.72;;;-0.08;76.53
69855;BME280;57146;48.140;16.304;2023-03-03T00:25:25;99554.25;;;-0.15;77.57
69855;BME280;57146;48.140;16.304;2023-03-03T00:27:55;99559.31;;;-0.09;76.90
69855;BME280;57146;48.140;16.304;2023-03-03T00:30:24;99551.56;;;-0.09;76.70
69855;BME280;57146;48.140;16.304;2023-03-03T00:33:32;99547.31;;;-0.03;76.76
69855;BME280;57146;48.140;16.304;2023-03-03T00:38:42;99546.91;;;-0.18;77.10
69855;BME280;57146;48.140;16.304;2023-03-03T00:41:22;99544.78;;;-0.21;77.81
69855;BME280;57146;48.140;16.304;2023-03-03T00:43:52;99544.66;;;-0.27;77.51
69855;BME280;57146;48.140;16.304;2023-03-03T00:46:22;99545.34;;;-0.31;78.21
69855;BME280;57146;48.140;16.304;2023-03-03T00:48:52;99541.28;;;-0.39;78.34
69855;BME280;57146;48.140;16.304;2023-03-03T00:53:50;99536.09;;;-0.39;77.77
69855;BME280;57146;48.140;16.304;2023-03-03T00:56:17;99538.00;;;-0.46;78.31
69855;BME280;57146;48.140;16.304;2023-03-03T00:58:44;99536.66;;;-0.37;77.27
69855;BME280;57146;48.140;16.304;2023-03-03T01:01:18;99534.72;;;-0.41;77.89
69855;BME280;57146;48.140;16.304;2023-03-03T01:03:50;99539.31;;;-0.43;78.32
69855;BME280;57146;48.140;16.304;2023-03-03T01:06:17;99526.03;;;-0.47;77.77
69855;BME280;57146;48.140;16.304;2023-03-03T01:08:45;99524.59;;;-0.43;78.40
69855;BME280;57146;48.140;16.304;2023-03-03T01:11:15;99524.25;;;-0.46;77.71
69855;BME280;57146;48.140;16.304;2023-03-03T01:13:45;99519.22;;;-0.41;77.64
69855;BME280;57146;48.140;16.304;2023-03-03T01:16:13;99519.97;;;-0.53;78.75
69855;BME280;57146;48.140;16.304;2023-03-03T01:18:40;99515.44;;;-0.57;78.57
69855;BME280;57146;48.140;16.304;2023-03-03T01:21:08;99519.72;;;-0.63;78.99
69855;BME280;57146;48.140;16.304;2023-03-03T01:23:38;99520.16;;;-0.66;79.17
69855;BME280;57146;48.140;16.304;2023-03-03T01:26:07;99508.59;;;-0.63;78.58
69855;BME280;57146;48.140;16.304;2023-03-03T01:28:35;99516.69;;;-0.60;78.25
69855;BME280;57146;48.140;16.304;2023-03-03T01:31:04;99507.69;;;-0.57;77.75
69855;BME280;57146;48.140;16.304;2023-03-03T01:33:34;99508.44;;;-0.68;79.09
69855;BME280;57146;48.140;16.304;2023-03-03T01:36:02;99508.44;;;-0.68;79.22
69855;BME280;57146;48.140;16.304;2023-03-03T01:38:30;99504.72;;;-0.73;79.63
69855;BME280;57146;48.140;16.304;2023-03-03T01:41:01;99507.09;;;-0.71;78.89
69855;BME280;57146;48.140;16.304;2023-03-03T01:43:30;99504.06;;;-0.68;78.54
69855;BME280;57146;48.140;16.304;2023-03-03T01:48:58;99500.72;;;-0.87;79.57
69855;BME280;57146;48.140;16.304;2023-03-03T01:51:31;99501.44;;;-0.80;79.90
69855;BME280;57146;48.140;16.304;2023-03-03T01:54:06;99511.22;;;-0.82;79.89
69855;BME280;57146;48.140;16.304;2023-03-03T01:56:41;99504.16;;;-0.75;79.77
69855;BME280;57146;48.140;16.304;2023-03-03T01:59:21;99514.03;;;-0.72;80.07
69855;BME280;57146;48.140;16.304;2023-03-03T02:01:52;99505.06;;;-0.69;80.07
69855;BME280;57146;48.140;16.304;2023-03-03T02:04:20;99509.69;;;-0.71;80.36
69855;BME280;57146;48.140;16.304;2023-03-03T02:06:51;99508.59;;;-0.63;79.92
69855;BME280;57146;48.140;16.304;2023-03-03T02:09:32;99504.53;;;-0.59;79.16
69855;BME280;57146;48.140;16.304;2023-03-03T02:12:04;99511.53;;;-0.60;79.34
69855;BME280;57146;48.140;16.304;2023-03-03T02:14:32;99506.25;;;-0.53;79.56
69855;BME280;57146;48.140;16.304;2023-03-03T02:17:00;99509.19;;;-0.50;80.12
69855;BME280;57146;48.140;16.304;2023-03-03T02:22:33;99503.91;;;-0.43;79.53
69855;BME280;57146;48.140;16.304;2023-03-03T02:25:13;99501.31;;;-0.43;79.97
69855;BME280;57146;48.140;16.304;2023-03-03T02:27:42;99504.81;;;-0.37;80.40
69855;BME280;57146;48.140;16.304;2023-03-03T02:30:14;99502.00;;;-0.36;80.44
69855;BME280;57146;48.140;16.304;2023-03-03T02:32:42;99498.19;;;-0.33;80.03
69855;BME280;57146;48.140;16.304;2023-03-03T02:35:35;99491.91;;;-0.26;80.56
69855;BME280;57146;48.140;16.304;2023-03-03T02:41:44;99491.47;;;-0.22;80.34
69855;BME280;57146;48.140;16.304;2023-03-03T02:44:12;99487.84;;;-0.33;80.43
69855;BME280;57146;48.140;16.304;2023-03-03T02:46:44;99482.47;;;-0.32;80.32
69855;BME280;57146;48.140;16.304;2023-03-03T02:49:14;99481.00;;;-0.28;80.83
69855;BME280;57146;48.140;16.304;2023-03-03T02:51:42;99477.06;;;-0.30;80.64
69855;BME280;57146;48.140;16.304;2023-03-03T02:54:12;99484.59;;;-0.29;80.23
69855;BME280;57146;48.140;16.304;2023-03-03T02:56:40;99484.47;;;-0.22;80.41
69855;BME280;57146;48.140;16.304;2023-03-03T02:59:07;99488.44;;;-0.19;80.03
69855;BME280;57146;48.140;16.304;2023-03-03T03:01:41;99484.63;;;-0.17;80.34
69855;BME280;57146;48.140;16.304;2023-03-03T03:04:17;99481.78;;;-0.15;80.36
69855;BME280;57146;48.140;16.304;2023-03-03T03:06:47;99494.63;;;-0.20;80.91
69855;BME280;57146;48.140;16.304;2023-03-03T03:09:22;99496.97;;;-0.19;80.32
69855;BME280;57146;48.140;16.304;2023-03-03T03:11:51;99491.34;;;-0.16;80.77
69855;BME280;57146;48.140;16.304;2023-03-03T03:14:23;99491.13;;;-0.14;80.84
69855;BME280;57146;48.140;16.304;2023-03-03T03:16:50;99488.66;;;-0.09;80.60
69855;BME280;57146;48.140;16.304;2023-03-03T03:19:17;99490.03;;;-0.07;80.04
69855;BME280;57146;48.140;16.304;2023-03-03T03:21:46;99484.84;;;-0.07;80.39
69855;BME280;57146;48.140;16.304;2023-03-03T03:24:14;99484.38;;;-0.04;79.86
69855;BME280;57146;48.140;16.304;2023-03-03T03:26:46;99486.19;;;-0.04;80.43
69855;BME280;57146;48.140;16.304;2023-03-03T03:29:14;99475.94;;;-0.11;80.67
69855;BME280;57146;48.140;16.304;2023-03-03T03:31:42;99471.09;;;-0.07;81.38
69855;BME280;57146;48.140;16.304;2023-03-03T03:34:10;99469.44;;;-0.02;80.73
69855;BME280;57146;48.140;16.304;2023-03-03T03:36:37;99473.81;;;-0.02;81.71
69855;BME280;57146;48.140;16.304;2023-03-03T03:39:05;99471.00;;;-0.01;81.27
69855;BME280;57146;48.140;16.304;2023-03-03T03:41:35;99469.22;;;0.00;80.97
69855;BME280;57146;48.140;16.304;2023-03-03T03:44:03;99471.81;;;0.00;80.59
69855;BME280;57146;48.140;16.304;2023-03-03T03:46:30;99468.41;;;-0.01;80.20
69855;BME280;57146;48.140;16.304;2023-03-03T03:48:57;99470.00;;;0.01;80.59
69855;BME280;57146;48.140;16.304;2023-03-03T03:51:25;99466.38;;;0.02;80.05
69855;BME280;57146;48.140;16.304;2023-03-03T03:53:52;99468.19;;;0.01;80.16
69855;BME280;57146;48.140;16.304;2023-03-03T03:56:20;99469.66;;;-0.03;81.22
69855;BME280;57146;48.140;16.304;2023-03-03T03:59:12;99465.91;;;-0.07;80.27
69855;BME280;57146;48.140;16.304;2023-03-03T04:01:43;99468.16;;;-0.11;80.15
69855;BME280;57146;48.140;16.304;2023-03-03T04:04:10;99466.06;;;-0.14;81.01
69855;BME280;57146;48.140;16.304;2023-03-03T04:06:38;99466.50;;;-0.17;81.37
69855;BME280;57146;48.140;16.304;2023-03-03T04:09:06;99469.41;;;-0.25;81.29
69855;BME280;57146;48.140;16.304;2023-03-03T04:11:34;99470.66;;;-0.28;80.64
69855;BME280;57146;48.140;16.304;2023-03-03T04:14:04;99472.47;;;-0.28;80.28
69855;BME280;57146;48.140;16.304;2023-03-03T04:16:33;99476.13;;;-0.36;81.29
69855;BME280;57146;48.140;16.304;2023-03-03T04:19:00;99480.75;;;-0.38;81.52
69855;BME280;57146;48.140;16.304;2023-03-03T04:21:34;99479.53;;;-0.35;80.68
69855;BME280;57146;48.140;16.304;2023-03-03T04:24:01;99480.53;;;-0.36;81.71
69855;BME280;57146;48.140;16.304;2023-03-03T04:26:29;99484.81;;;-0.42;81.44
69855;BME280;57146;48.140;16.304;2023-03-03T04:29:03;99495.94;;;-0.41;81.40
69855;BME280;57146;48.140;16.304;2023-03-03T04:31:32;99479.63;;;-0.42;81.18
69855;BME280;57146;48.140;16.304;2023-03-03T04:34:07;99485.00;;;-0.43;81.08
69855;BME280;57146;48.140;16.304;2023-03-03T04:36:35;99495.78;;;-0.46;81.72
69855;BME280;57146;48.140;16.304;2023-03-03T04:39:03;99494.81;;;-0.45;81.96
69855;BME280;57146;48.140;16.304;2023-03-03T04:41:31;99491.09;;;-0.50;82.19
69855;BME280;57146;48.140;16.304;2023-03-03T04:44:00;99484.66;;;-0.47;81.08
69855;BME280;57146;48.140;16.304;2023-03-03T04:46:28;99491.28;;;-0.51;81.24
69855;BME280;57146;48.140;16.304;2023-03-03T04:48:56;99483.94;;;-0.66;81.88
69855;BME280;57146;48.140;16.304;2023-03-03T04:51:25;99494.97;;;-0.70;82.15
69855;BME280;57146;48.140;16.304;2023-03-03T04:53:52;99488.44;;;-0.73;82.38
69855;BME280;57146;48.140;16.304;2023-03-03T04:56:19;99492.78;;;-0.85;83.37
69855;BME280;57146;48.140;16.304;2023-03-03T04:59:12;99493.47;;;-0.78;83.16
69855;BME280;57146;48.140;16.304;2023-03-03T05:01:39;99489.88;;;-0.77;82.27
69855;BME280;57146;48.140;16.304;2023-03-03T05:04:32;99494.25;;;-0.78;82.29
69855;BME280;57146;48.140;16.304;2023-03-03T05:07:04;99500.31;;;-0.84;82.38
69855;BME280;57146;48.140;16.304;2023-03-03T05:09:31;99494.78;;;-0.87;82.96
69855;BME280;57146;48.140;16.304;2023-03-03T05:11:58;99498.22;;;-0.93;83.07
69855;BME280;57146;48.140;16.304;2023-03-03T05:14:26;99496.06;;;-0.97;83.62
69855;BME280;57146;48.140;16.304;2023-03-03T05:16:53;99490.34;;;-0.99;83.62
69855;BME280;57146;48.140;16.304;2023-03-03T05:19:20;99499.47;;;-0.96;83.48
69855;BME280;57146;48.140;16.304;2023-03-03T05:21:48;99490.91;;;-0.97;83.08
69855;BME280;57146;48.140;16.304;2023-03-03T05:24:16;99495.97;;;-1.02;83.57
69855;BME280;57146;48.140;16.304;2023-03-03T05:26:43;99492.59;;;-1.02;83.28
69855;BME280;57146;48.140;16.304;2023-03-03T05:29:10;99499.19;;;-1.06;83.78
69855;BME280;57146;48.140;16.304;2023-03-03T05:31:38;99501.19;;;-1.08;83.80
69855;BME280;57146;48.140;16.304;2023-03-03T05:34:05;99494.03;;;-1.06;83.59
69855;BME280;57146;48.140;16.304;2023-03-03T05:36:32;99496.03;;;-1.08;83.43
69855;BME280;57146;48.140;16.304;2023-03-03T05:38:59;99501.19;;;-1.08;84.16
69855;BME280;57146;48.140;16.304;2023-03-03T05:41:26;99513.69;;;-1.05;84.79
69855;BME280;57146;48.140;16.304;2023-03-03T05:43:54;99512.16;;;-0.94;83.98
69855;BME280;57146;48.140;16.304;2023-03-03T05:46:20;99526.38;;;-0.85;83.50
69855;BME280;57146;48.140;16.304;2023-03-03T05:48:48;99530.44;;;-0.78;83.21
69855;BME280;57146;48.140;16.304;2023-03-03T05:51:15;99532.59;;;-0.75;83.03
69855;BME280;57146;48.140;16.304;2023-03-03T05:53:42;99532.81;;;-0.76;83.66
69855;BME280;57146;48.140;16.304;2023-03-03T05:56:10;99538.69;;;-0.69;82.85
69855;BME280;57146;48.140;16.304;2023-03-03T05:58:37;99542.28;;;-0.70;82.67
69855;BME280;57146;48.140;16.304;2023-03-03T06:01:04;99536.09;;;-0.69;83.32
69855;BME280;57146;48.140;16.304;2023-03-03T06:03:32;99530.38;;;-0.71;83.35
69855;BME280;57146;48.140;16.304;2023-03-03T06:05:59;99540.81;;;-0.66;83.55
69855;BME280;57146;48.140;16.304;2023-03-03T06:08:26;99545.78;;;-0.64;83.86
69855;BME280;57146;48.140;16.304;2023-03-03T06:10:53;99543.44;;;-0.54;83.36
69855;BME280;57146;48.140;16.304;2023-03-03T06:13:21;99555.06;;;-0.45;83.07
69855;BME280;57146;48.140;16.304;2023-03-03T06:15:48;99552.59;;;-0.40;83.58
69855;BME280;57146;48.140;16.304;2023-03-03T06:18:17;99547.13;;;-0.32;82.32
69855;BME280;57146;48.140;16.304;2023-03-03T06:20:44;99553.66;;;-0.29;82.86
69855;BME280;57146;48.140;16.304;2023-03-03T06:23:14;99552.22;;;-0.13;82.74
69855;BME280;57146;48.140;16.304;2023-03-03T06:25:45;99545.59;;;0.03;82.39
69855;BME280;57146;48.140;16.304;2023-03-03T06:28:13;99549.91;;;0.20;82.27
69855;BME280;57146;48.140;16.304;2023-03-03T06:30:42;99565.78;;;0.47;80.25
69855;BME280;57146;48.140;16.304;2023-03-03T06:33:09;99559.78;;;0.70;78.45
69855;BME280;57146;48.140;16.304;2023-03-03T06:35:38;99566.41;;;0.90;77.83
69855;BME280;57146;48.140;16.304;2023-03-03T06:38:05;99570.34;;;1.04;77.52
69855;BME280;57146;48.140;16.304;2023-03-03T06:40:32;99568.59;;;1.22;76.79
69855;BME280;57146;48.140;16.304;2023-03-03T06:43:03;99568.16;;;1.53;75.95
69855;BME280;57146;48.140;16.304;2023-03-03T06:45:29;99563.06;;;1.75;74.62
69855;BME280;57146;48.140;16.304;2023-03-03T06:47:58;99554.41;;;1.86;74.55
69855;BME280;57146;48.140;16.304;2023-03-03T06:50:25;99549.41;;;1.97;73.53
69855;BME280;57146;48.140;16.304;2023-03-03T06:53:13;99561.66;;;2.01;73.76
69855;BME280;57146;48.140;16.304;2023-03-03T06:55:41;99564.78;;;2.20;71.93
69855;BME280;57146;48.140;16.304;2023-03-03T06:58:14;99562.69;;;2.17;72.65
69855;BME280;57146;48.140;16.304;2023-03-03T07:00:45;99570.00;;;2.20;73.29
69855;BME280;57146;48.140;16.304;2023-03-03T07:03:18;99570.72;;;2.15;73.74
69855;BME280;57146;48.140;16.304;2023-03-03T07:06:22;99568.53;;;2.07;74.64
69855;BME280;57146;48.140;16.304;2023-03-03T07:08:51;99567.81;;;2.12;74.50
69855;BME280;57146;48.140;16.304;2023-03-03T07:11:21;99565.66;;;2.26;74.82
69855;BME280;57146;48.140;16.304;2023-03-03T07:13:50;99568.00;;;2.44;73.24
69855;BME280;57146;48.140;16.304;2023-03-03T07:16:18;99568.78;;;2.61;72.40
69855;BME280;57146;48.140;16.304;2023-03-03T07:18:50;99575.44;;;2.74;72.41
69855;BME280;57146;48.140;16.304;2023-03-03T07:21:22;99584.16;;;2.85;73.00
69855;BME280;57146;48.140;16.304;2023-03-03T07:23:52;99584.09;;;3.02;71.04
69855;BME280;57146;48.140;16.304;2023-03-03T07:26:26;99585.59;;;3.20;71.28
69855;BME280;57146;48.140;16.304;2023-03-03T07:29:24;99585.63;;;3.42;69.63
69855;BME280;57146;48.140;16.304;2023-03-03T07:31:55;99590.59;;;3.48;65.98
69855;BME280;57146;48.140;16.304;2023-03-03T07:34:30;99595.31;;;3.51;65.96
69855;BME280;57146;48.140;16.304;2023-03-03T07:37:10;99598.50;;;3.58;65.90
69855;BME280;57146;48.140;16.304;2023-03-03T07:39:46;99599.84;;;3.61;65.70
69855;BME280;57146;48.140;16.304;2023-03-03T07:45:00;99600.53;;;3.78;64.56
69855;BME280;57146;48.140;16.304;2023-03-03T07:47:34;99606.38;;;3.91;65.09
69855;BME280;57146;48.140;16.304;2023-03-03T07:50:13;99613.00;;;4.03;65.13
69855;BME280;57146;48.140;16.304;2023-03-03T07:52:54;99607.38;;;4.17;65.37
69855;BME280;57146;48.140;16.304;2023-03-03T07:55:35;99606.38;;;4.23;65.30
69855;BME280;57146;48.140;16.304;2023-03-03T07:58:39;99603.56;;;4.29;67.02
69855;BME280;57146;48.140;16.304;2023-03-03T08:03:54;99625.59;;;4.49;62.99
69855;BME280;57146;48.140;16.304;2023-03-03T08:06:44;99611.47;;;4.40;61.80
69855;BME280;57146;48.140;16.304;2023-03-03T08:09:36;99621.59;;;4.36;62.22
69855;BME280;57146;48.140;16.304;2023-03-03T08:14:34;99616.44;;;4.41;61.57
69855;BME280;57146;48.140;16.304;2023-03-03T08:17:08;99609.97;;;4.49;61.20
69855;BME280;57146;48.140;16.304;2023-03-03T08:19:40;99613.38;;;4.54;61.42
69855;BME280;57146;48.140;16.304;2023-03-03T08:22:16;99608.78;;;4.67;60.76
69855;BME280;57146;48.140;16.304;2023-03-03T08:24:44;99608.56;;;4.73;60.25
69855;BME280;57146;48.140;16.304;2023-03-03T08:27:11;99608.56;;;4.78;60.23
69855;BME280;57146;48.140;16.304;2023-03-03T08:29:37;99614.34;;;4.91;59.73
69855;BME280;57146;48.140;16.304;2023-03-03T08:32:06;99607.34;;;4.96;60.25
69855;BME280;57146;48.140;16.304;2023-03-03T08:34:33;99608.97;;;5.08;60.83
69855;BME280;57146;48.140;16.304;2023-03-03T08:37:02;99614.22;;;5.18;59.58
69855;BME280;57146;48.140;16.304;2023-03-03T08:39:29;99608.28;;;5.27;59.29
69855;BME280;57146;48.140;16.304;2023-03-03T08:41:57;99611.16;;;5.36;58.85
69855;BME280;57146;48.140;16.304;2023-03-03T08:44:24;99619.03;;;5.46;57.91
69855;BME280;57146;48.140;16.304;2023-03-03T08:46:51;99611.22;;;5.57;57.80
69855;BME280;57146;48.140;16.304;2023-03-03T08:49:20;99615.94;;;5.65;57.91
69855;BME280;57146;48.140;16.304;2023-03-03T08:51:47;99615.69;;;5.71;58.05
69855;BME280;57146;48.140;16.304;2023-03-03T08:54:14;99616.25;;;5.84;57.04
69855;BME280;57146;48.140;16.304;2023-03-03T08:56:41;99610.25;;;5.93;56.68
69855;BME280;57146;48.140;16.304;2023-03-03T08:59:08;99607.66;;;5.98;56.65
69855;BME280;57146;48.140;16.304;2023-03-03T09:01:35;99594.88;;;6.02;55.87
69855;BME280;57146;48.140;16.304;2023-03-03T09:04:28;99607.13;;;6.12;56.53
69855;BME280;57146;48.140;16.304;2023-03-03T09:07:22;99608.19;;;6.16;55.69
69855;BME280;57146;48.140;16.304;2023-03-03T09:09:49;99611.31;;;6.18;55.06
69855;BME280;57146;48.140;16.304;2023-03-03T09:12:35;99617.34;;;6.23;55.03
69855;BME280;57146;48.140;16.304;2023-03-03T09:15:29;99625.44;;;6.32;55.55
69855;BME280;57146;48.140;16.304;2023-03-03T09:18:36;99622.03;;;6.42;55.03
69855;BME280;57146;48.140;16.304;2023-03-03T09:21:25;99629.59;;;6.54;55.05
69855;BME280;57146;48.140;16.304;2023-03-03T09:23:57;99623.03;;;6.66;54.87
69855;BME280;57146;48.140;16.304;2023-03-03T09:26:30;99628.78;;;6.74;53.78
69855;BME280;57146;48.140;16.304;2023-03-03T09:31:50;99635.31;;;6.81;53.10
69855;BME280;57146;48.140;16.304;2023-03-03T09:34:21;99642.38;;;6.76;52.93
69855;BME280;57146;48.140;16.304;2023-03-03T09:36:54;99643.72;;;6.73;53.22
69855;BME280;57146;48.140;16.304;2023-03-03T09:39:25;99638.22;;;6.69;53.26
69855;BME280;57146;48.140;16.304;2023-03-03T09:47:30;99653.38;;;6.78;53.60
69855;BME280;57146;48.140;16.304;2023-03-03T10:01:16;99648.41;;;6.81;53.15
69855;BME280;57146;48.140;16.304;2023-03-03T10:06:53;99644.97;;;6.91;53.30
69855;BME280;57146;48.140;16.304;2023-03-03T10:13:17;99646.47;;;7.07;51.86
69855;BME280;57146;48.140;16.304;2023-03-03T10:16:27;99644.41;;;7.04;51.69
69855;BME280;57146;48.140;16.304;2023-03-03T10:19:06;99644.94;;;7.06;51.03
69855;BME280;57146;48.140;16.304;2023-03-03T10:24:55;99627.88;;;7.19;51.49
69855;BME280;57146;48.140;16.304;2023-03-03T10:27:44;99626.25;;;7.33;51.79
69855;BME280;57146;48.140;16.304;2023-03-03T10:30:38;99619.66;;;7.36;50.67
69855;BME280;57146;48.140;16.304;2023-03-03T10:34:02;99619.91;;;7.39;51.59
69855;BME280;57146;48.140;16.304;2023-03-03T10:39:44;99601.75;;;7.58;51.73
69855;BME280;57146;48.140;16.304;2023-03-03T10:48:06;99596.88;;;7.81;50.25
69855;BME280;57146;48.140;16.304;2023-03-03T10:53:36;99582.88;;;7.96;50.62
69855;BME280;57146;48.140;16.304;2023-03-03T10:56:33;99563.97;;;7.99;50.14
69855;BME280;57146;48.140;16.304;2023-03-03T11:08:16;99568.22;;;8.24;50.16
69855;BME280;57146;48.140;16.304;2023-03-03T11:20:10;99570.09;;;8.52;48.65
69855;BME280;57146;48.140;16.304;2023-03-03T11:37:20;99574.72;;;8.84;44.91
69855;BME280;57146;48.140;16.304;2023-03-03T11:39:49;99567.56;;;8.90;45.28
69855;BME280;57146;48.140;16.304;2023-03-03T11:43:09;99551.31;;;8.88;45.57
69855;BME280;57146;48.140;16.304;2023-03-03T11:46:29;99547.00;;;8.97;45.79
69855;BME280;57146;48.140;16.304;2023-03-03T11:54:22;99534.47;;;9.13;46.01
69855;BME280;57146;48.140;16.304;2023-03-03T11:56:55;99530.19;;;9.17;45.78
69855;BME280;57146;48.140;16.304;2023-03-03T11:59:47;99531.63;;;9.28;45.90
69855;BME280;57146;48.140;16.304;2023-03-03T12:05:18;99521.41;;;9.27;44.79
69855;BME280;57146;48.140;16.304;2023-03-03T12:16:54;99517.78;;;9.42;44.84
69855;BME280;57146;48.140;16.304;2023-03-03T12:22:37;99499.38;;;9.42;44.65
69855;BME280;57146;48.140;16.304;2023-03-03T12:35:30;99499.06;;;9.62;44.89
69855;BME280;57146;48.140;16.304;2023-03-03T12:38:10;99497.84;;;9.73;45.32
69855;BME280;57146;48.140;16.304;2023-03-03T12:41:26;99493.00;;;9.80;43.87
69855;BME280;57146;48.140;16.304;2023-03-03T12:46:55;99481.09;;;9.69;44.28
69855;BME280;57146;48.140;16.304;2023-03-03T12:50:13;99480.91;;;9.79;43.52
69855;BME280;57146;48.140;16.304;2023-03-03T13:04:29;99461.97;;;9.96;42.86
69855;BME280;57146;48.140;16.304;2023-03-03T13:07:22;99465.38;;;9.97;41.68
69855;BME280;57146;48.140;16.304;2023-03-03T13:10:03;99460.38;;;9.95;42.26
69855;BME280;57146;48.140;16.304;2023-03-03T13:15:20;99468.13;;;10.19;42.43
69855;BME280;57146;48.140;16.304;2023-03-03T13:18:33;99464.97;;;10.17;42.43
69855;BME280;57146;48.140;16.304;2023-03-03T13:21:35;99461.78;;;10.20;41.51
69855;BME280;57146;48.140;16.304;2023-03-03T13:24:30;99457.72;;;10.28;41.98
69855;BME280;57146;48.140;16.304;2023-03-03T13:27:17;99444.09;;;10.26;42.71
69855;BME280;57146;48.140;16.304;2023-03-03T13:32:47;99449.72;;;10.47;43.46
69855;BME280;57146;48.140;16.304;2023-03-03T13:35:57;99449.81;;;10.42;43.09
69855;BME280;57146;48.140;16.304;2023-03-03T13:38:35;99446.03;;;10.34;42.24
69855;BME280;57146;48.140;16.304;2023-03-03T13:43:50;99434.91;;;10.37;43.52
69855;BME280;57146;48.140;16.304;2023-03-03T13:52:12;99435.69;;;10.51;43.54
69855;BME280;57146;48.140;16.304;2023-03-03T14:00:10;99445.69;;;10.63;43.58
69855;BME280;57146;48.140;16.304;2023-03-03T14:02:56;99432.47;;;10.54;43.76
69855;BME280;57146;48.140;16.304;2023-03-03T14:17:22;99431.34;;;10.69;42.31
69855;BME280;57146;48.140;16.304;2023-03-03T14:20:29;99424.34;;;10.65;41.90
69855;BME280;57146;48.140;16.304;2023-03-03T14:23:00;99430.78;;;10.59;43.30
69855;BME280;57146;48.140;16.304;2023-03-03T14:28:41;99422.38;;;10.70;43.06
69855;BME280;57146;48.140;16.304;2023-03-03T14:31:26;99424.16;;;10.61;43.48
69855;BME280;57146;48.140;16.304;2023-03-03T14:34:14;99419.09;;;10.65;42.84
69855;BME280;57146;48.140;16.304;2023-03-03T14:36:56;99426.59;;;10.71;42.86
69855;BME280;57146;48.140;16.304;2023-03-03T14:42:52;99422.09;;;10.72;43.06
69855;BME280;57146;48.140;16.304;2023-03-03T14:45:33;99423.06;;;10.76;43.73
69855;BME280;57146;48.140;16.304;2023-03-03T14:48:17;99428.81;;;10.78;43.18
69855;BME280;57146;48.140;16.304;2023-03-03T14:50:54;99426.28;;;10.73;41.97
69855;BME280;57146;48.140;16.304;2023-03-03T14:53:38;99425.31;;;10.69;42.71
69855;BME280;57146;48.140;16.304;2023-03-03T14:56:29;99426.88;;;10.70;42.66
69855;BME280;57146;48.140;16.304;2023-03-03T14:59:16;99425.81;;;10.71;43.02
69855;BME280;57146;48.140;16.304;2023-03-03T15:01:57;99427.84;;;10.74;42.89
69855;BME280;57146;48.140;16.304;2023-03-03T15:04:27;99426.00;;;10.74;42.71
69855;BME280;57146;48.140;16.304;2023-03-03T15:06:54;99421.00;;;10.73;43.23
69855;BME280;57146;48.140;16.304;2023-03-03T15:11:57;99427.66;;;10.70;43.13
69855;BME280;57146;48.140;16.304;2023-03-03T15:14:31;99422.09;;;10.72;42.58
69855;BME280;57146;48.140;16.304;2023-03-03T15:22:51;99412.56;;;10.62;42.17
69855;BME280;57146;48.140;16.304;2023-03-03T15:25:50;99418.41;;;10.59;42.77
69855;BME280;57146;48.140;16.304;2023-03-03T15:31:34;99404.63;;;10.76;44.01
69855;BME280;57146;48.140;16.304;2023-03-03T15:37:17;99413.97;;;10.82;42.45
69855;BME280;57146;48.140;16.304;2023-03-03T15:40:08;99422.88;;;10.72;42.31
69855;BME280;57146;48.140;16.304;2023-03-03T15:45:52;99410.50;;;10.59;41.56
69855;BME280;57146;48.140;16.304;2023-03-03T15:48:59;99414.03;;;10.54;42.60
69855;BME280;57146;48.140;16.304;2023-03-03T15:51:43;99414.63;;;10.51;42.80
69855;BME280;57146;48.140;16.304;2023-03-03T15:57:20;99413.38;;;10.35;42.25
69855;BME280;57146;48.140;16.304;2023-03-03T16:02:52;99418.53;;;10.13;41.77
69855;BME280;57146;48.140;16.304;2023-03-03T16:15:56;99423.56;;;9.68;42.74
69855;BME280;57146;48.140;16.304;2023-03-03T16:21:49;99431.28;;;9.45;42.58
69855;BME280;57146;48.140;16.304;2023-03-03T16:27:51;99441.47;;;9.14;43.75
69855;BME280;57146;48.140;16.304;2023-03-03T16:38:47;99454.31;;;8.59;44.54
69855;BME280;57146;48.140;16.304;2023-03-03T16:41:59;99459.22;;;8.42;45.96
69855;BME280;57146;48.140;16.304;2023-03-03T16:44:37;99456.25;;;8.24;47.81
69855;BME280;57146;48.140;16.304;2023-03-03T16:50:07;99464.03;;;8.05;47.52
69855;BME280;57146;48.140;16.304;2023-03-03T17:12:18;99483.66;;;8.37;44.89
69855;BME280;57146;48.140;16.304;2023-03-03T17:17:49;99491.28;;;8.09;45.91
69855;BME280;57146;48.140;16.304;2023-03-03T17:23:23;99502.81;;;8.32;44.80
69855;BME280;57146;48.140;16.304;2023-03-03T17:29:20;99509.25;;;8.21;45.30
69855;BME280;57146;48.140;16.304;2023-03-03T17:34:47;99521.34;;;7.54;48.83
69855;BME280;57146;48.140;16.304;2023-03-03T17:37:46;99519.97;;;7.22;49.16
69855;BME280;57146;48.140;16.304;2023-03-03T17:40:20;99521.91;;;7.06;49.62
69855;BME280;57146;48.140;16.304;2023-03-03T17:43:06;99531.94;;;6.84;49.75
69855;BME280;57146;48.140;16.304;2023-03-03T17:45:39;99527.81;;;6.72;49.85
69855;BME280;57146;48.140;16.304;2023-03-03T17:51:23;99535.72;;;6.47;51.42
69855;BME280;57146;48.140;16.304;2023-03-03T18:09:38;99536.97;;;7.30;48.45
69855;BME280;57146;48.140;16.304;2023-03-03T18:12:14;99543.53;;;7.27;47.87
69855;BME280;57146;48.140;16.304;2023-03-03T18:17:43;99552.75;;;7.14;49.06
69855;BME280;57146;48.140;16.304;2023-03-03T18:20:40;99555.97;;;7.01;47.10
69855;BME280;57146;48.140;16.304;2023-03-03T18:23:27;99556.13;;;7.15;46.70